createdAt,value
2016-03-12T00:00:22.720Z,0
2016-03-12T00:01:22.690Z,0
2016-03-12T00:02:22.631Z,0
2016-03-12T00:03:22.571Z,0
2016-03-12T00:04:22.511Z,0
2016-03-12T00:05:22.467Z,0
2016-03-12T00:06:22.319Z,0
2016-03-12T00:07:22.325Z,0
2016-03-12T00:08:22.304Z,0
2016-03-12T00:09:22.229Z,0
2016-03-12T00:10:22.184Z,0
2016-03-12T00:11:22.110Z,0
2016-03-12T00:12:22.049Z,0
2016-03-12T00:13:22.021Z,0
2016-03-12T00:14:21.773Z,0
2016-03-12T00:15:21.886Z,0
2016-03-12T00:16:21.856Z,0
2016-03-12T00:17:21.610Z,0
2016-03-12T00:18:21.706Z,0
2016-03-12T00:19:21.647Z,0
2016-03-12T00:20:21.586Z,0
2016-03-12T00:21:21.620Z,0
2016-03-12T00:22:21.498Z,0
2016-03-12T00:23:21.438Z,0
2016-03-12T00:24:21.441Z,0
2016-03-12T00:25:21.319Z,0
2016-03-12T00:26:21.244Z,0
2016-03-12T00:27:21.199Z,0
2016-03-12T00:28:21.139Z,0
2016-03-12T00:29:21.094Z,0
2016-03-12T00:30:21.052Z,0
2016-03-12T00:31:20.241Z,0
2016-03-12T00:32:20.963Z,0
2016-03-12T00:33:20.840Z,0
2016-03-12T00:34:20.843Z,0
2016-03-12T00:35:20.752Z,0
2016-03-12T00:36:20.724Z,0
2016-03-12T00:37:20.648Z,0
2016-03-12T00:38:20.573Z,0
2016-03-12T00:39:20.529Z,0
2016-03-12T00:40:20.468Z,0
2016-03-12T00:41:20.393Z,0
2016-03-12T00:42:20.364Z,0
2016-03-12T00:43:20.476Z,0
2016-03-12T00:44:20.245Z,0
2016-03-12T00:45:20.185Z,0
2016-03-12T00:46:20.125Z,0
2016-03-12T00:47:20.081Z,0
2016-03-12T00:48:20.005Z,0
2016-03-12T00:49:19.962Z,0
2016-03-12T00:50:19.917Z,0
2016-03-12T00:51:19.873Z,0
2016-03-12T00:52:19.986Z,0
2016-03-12T00:53:19.770Z,0
2016-03-12T00:54:19.662Z,0
2016-03-12T00:55:19.619Z,0
2016-03-12T00:56:19.574Z,0
2016-03-12T00:57:19.514Z,0
2016-03-12T00:58:19.455Z,0
2016-03-12T00:59:19.394Z,0
2016-03-12T01:00:19.350Z,0
2016-03-12T01:01:19.306Z,0
2016-03-12T01:02:19.215Z,0
2016-03-12T01:03:19.186Z,0
2016-03-12T01:04:19.143Z,0
2016-03-12T01:05:19.051Z,0
2016-03-12T01:06:19.008Z,0
2016-03-12T01:07:18.947Z,0
2016-03-12T01:08:18.904Z,0
2016-03-12T01:09:18.827Z,0
2016-03-12T01:10:18.799Z,0
2016-03-12T01:11:18.755Z,0
2016-03-12T01:12:18.649Z,0
2016-03-12T01:13:18.604Z,0
2016-03-12T01:14:18.545Z,0
2016-03-12T01:15:18.515Z,0
2016-03-12T01:16:18.425Z,0
2016-03-12T01:17:18.365Z,0
2016-03-12T01:18:18.337Z,0
2016-03-12T01:19:18.245Z,0
2016-03-12T01:20:18.232Z,0
2016-03-12T01:21:18.157Z,0
2016-03-12T01:22:18.081Z,0
2016-03-12T01:23:18.037Z,0
2016-03-12T01:24:18.008Z,0
2016-03-12T01:25:17.933Z,0
2016-03-12T01:26:17.889Z,0
2016-03-12T01:27:17.814Z,0
2016-03-12T01:28:17.785Z,0
2016-03-12T01:29:17.710Z,0
2016-03-12T01:30:17.650Z,0
2016-03-12T01:31:17.606Z,0
2016-03-12T01:32:17.546Z,0
2016-03-12T01:33:17.517Z,0
2016-03-12T01:34:16.692Z,0
2016-03-12T01:35:17.382Z,0
2016-03-12T01:36:17.338Z,0
2016-03-12T01:37:17.277Z,0
2016-03-12T01:38:17.202Z,0
2016-03-12T01:39:17.143Z,0
2016-03-12T01:40:17.083Z,0
2016-03-12T01:41:17.054Z,0
2016-03-12T01:42:16.979Z,0
2016-03-12T01:43:16.918Z,0
2016-03-12T01:44:16.906Z,0
2016-03-12T01:45:16.815Z,0
2016-03-12T01:46:16.756Z,0
2016-03-12T01:47:16.695Z,0
2016-03-12T01:48:16.652Z,0
2016-03-12T01:49:16.592Z,0
2016-03-12T01:50:16.548Z,0
2016-03-12T01:51:16.472Z,0
2016-03-12T01:52:16.428Z,0
2016-03-12T01:53:16.368Z,0
2016-03-12T01:54:16.324Z,0
2016-03-12T01:55:16.264Z,0
2016-03-12T01:56:16.203Z,0
2016-03-12T01:57:16.128Z,0
2016-03-12T01:58:16.084Z,0
2016-03-12T01:59:16.056Z,0
2016-03-12T02:00:15.996Z,0
2016-03-12T02:01:15.921Z,0
2016-03-12T02:02:15.877Z,0
2016-03-12T02:03:15.817Z,0
2016-03-12T02:04:15.757Z,0
2016-03-12T02:05:15.697Z,0
2016-03-12T02:06:15.637Z,0
2016-03-12T02:07:15.578Z,0
2016-03-12T02:08:15.565Z,0
2016-03-12T02:09:15.458Z,0
2016-03-12T02:10:15.413Z,0
2016-03-12T02:11:15.338Z,0
2016-03-12T02:12:15.310Z,0
2016-03-12T02:13:15.219Z,0
2016-03-12T02:14:15.159Z,0
2016-03-12T02:15:15.130Z,0
2016-03-12T02:16:15.055Z,0
2016-03-12T02:17:14.996Z,0
2016-03-12T02:18:14.951Z,0
2016-03-12T02:19:14.906Z,0
2016-03-12T02:20:14.815Z,0
2016-03-12T02:21:14.818Z,0
2016-03-12T02:22:14.712Z,0
2016-03-12T02:23:14.651Z,0
2016-03-12T02:24:14.608Z,0
2016-03-12T02:25:14.516Z,0
2016-03-12T02:26:14.503Z,0
2016-03-12T02:27:14.459Z,0
2016-03-12T02:28:14.368Z,0
2016-03-12T02:29:14.340Z,0
2016-03-12T02:30:14.249Z,0
2016-03-12T02:31:14.189Z,0
2016-03-12T02:32:14.144Z,0
2016-03-12T02:33:14.100Z,0
2016-03-12T02:34:14.009Z,0
2016-03-12T02:35:13.997Z,0
2016-03-12T02:36:13.921Z,0
2016-03-12T02:37:13.861Z,0
2016-03-12T02:38:13.785Z,0
2016-03-12T02:39:13.726Z,0
2016-03-12T02:40:13.682Z,0
2016-03-12T02:41:13.606Z,0
2016-03-12T02:42:13.562Z,0
2016-03-12T02:43:13.518Z,0
2016-03-12T02:44:13.474Z,0
2016-03-12T02:45:13.380Z,0
2016-03-12T02:46:13.382Z,0
2016-03-12T02:47:13.276Z,0
2016-03-12T02:48:13.215Z,0
2016-03-12T02:49:13.173Z,0
2016-03-12T02:50:13.112Z,0
2016-03-12T02:51:13.053Z,0
2016-03-12T02:52:12.992Z,0
2016-03-12T02:53:12.933Z,0
2016-03-12T02:54:12.872Z,0
2016-03-12T02:55:12.814Z,0
2016-03-12T02:56:12.816Z,0
2016-03-12T02:57:12.709Z,0
2016-03-12T02:58:12.634Z,0
2016-03-12T02:59:12.606Z,0
2016-03-12T03:00:12.530Z,0
2016-03-12T03:01:12.704Z,0
2016-03-12T03:02:12.410Z,0
2016-03-12T03:03:12.350Z,0
2016-03-12T03:04:12.322Z,0
2016-03-12T03:05:12.246Z,0
2016-03-12T03:06:12.186Z,0
2016-03-12T03:07:12.111Z,0
2016-03-12T03:08:12.083Z,0
2016-03-12T03:09:11.991Z,0
2016-03-12T03:10:11.947Z,0
2016-03-12T03:11:11.903Z,0
2016-03-12T03:12:11.828Z,0
2016-03-12T03:13:11.799Z,0
2016-03-12T03:14:11.723Z,0
2016-03-12T03:15:11.663Z,0
2016-03-12T03:16:11.635Z,0
2016-03-12T03:17:11.529Z,0
2016-03-12T03:18:11.500Z,0
2016-03-12T03:19:11.440Z,0
2016-03-12T03:20:11.380Z,0
2016-03-12T03:21:11.337Z,0
2016-03-12T03:22:11.261Z,0
2016-03-12T03:23:11.404Z,0
2016-03-12T03:24:11.157Z,0
2016-03-12T03:25:11.097Z,0
2016-03-12T03:26:11.053Z,0
2016-03-12T03:27:10.961Z,0
2016-03-12T03:28:10.964Z,0
2016-03-12T03:29:10.858Z,0
2016-03-12T03:30:10.829Z,0
2016-03-12T03:31:10.753Z,0
2016-03-12T03:32:10.663Z,0
2016-03-12T03:33:10.634Z,0
2016-03-12T03:34:10.559Z,0
2016-03-12T03:35:10.514Z,0
2016-03-12T03:36:10.455Z,0
2016-03-12T03:37:10.395Z,0
2016-03-12T03:38:10.350Z,0
2016-03-12T03:39:10.260Z,0
2016-03-12T03:40:10.230Z,0
2016-03-12T03:41:10.156Z,0
2016-03-12T03:42:09.940Z,0
2016-03-12T03:43:10.052Z,0
2016-03-12T03:44:09.976Z,0
2016-03-12T03:45:09.932Z,0
2016-03-12T03:46:09.857Z,0
2016-03-12T03:47:09.813Z,0
2016-03-12T03:48:09.737Z,0
2016-03-12T03:49:09.709Z,0
2016-03-12T03:50:09.649Z,0
2016-03-12T03:51:09.589Z,0
2016-03-12T03:52:09.528Z,0
2016-03-12T03:53:09.469Z,0
2016-03-12T03:54:09.393Z,0
2016-03-12T03:55:09.365Z,0
2016-03-12T03:56:09.305Z,0
2016-03-12T03:57:09.214Z,0
2016-03-12T03:58:09.201Z,0
2016-03-12T03:59:09.142Z,0
2016-03-12T04:00:09.097Z,0
2016-03-12T04:01:09.006Z,0
2016-03-12T04:02:08.947Z,0
2016-03-12T04:03:08.903Z,0
2016-03-12T04:04:08.811Z,0
2016-03-12T04:05:08.782Z,0
2016-03-12T04:06:08.723Z,0
2016-03-12T04:07:08.647Z,0
2016-03-12T04:08:08.588Z,0
2016-03-12T04:09:08.543Z,0
2016-03-12T04:10:08.499Z,0
2016-03-12T04:11:08.424Z,0
2016-03-12T04:12:08.364Z,0
2016-03-12T04:13:08.304Z,0
2016-03-12T04:14:08.260Z,0
2016-03-12T04:15:08.169Z,0
2016-03-12T04:16:08.124Z,0
2016-03-12T04:17:08.080Z,0
2016-03-12T04:18:08.004Z,0
2016-03-12T04:19:08.008Z,0
2016-03-12T04:20:07.901Z,0
2016-03-12T04:21:07.841Z,0
2016-03-12T04:22:07.828Z,0
2016-03-12T04:23:07.737Z,0
2016-03-12T04:24:07.678Z,0
2016-03-12T04:25:07.601Z,0
2016-03-12T04:26:07.543Z,0
2016-03-12T04:27:07.498Z,0
2016-03-12T04:28:07.439Z,0
2016-03-12T04:29:07.378Z,0
2016-03-12T04:30:07.334Z,0
2016-03-12T04:31:07.259Z,0
2016-03-12T04:32:07.200Z,0
2016-03-12T04:33:07.202Z,0
2016-03-12T04:34:07.094Z,0
2016-03-12T04:35:07.035Z,0
2016-03-12T04:36:06.975Z,0
2016-03-12T04:37:06.759Z,0
2016-03-12T04:38:06.871Z,0
2016-03-12T04:39:06.797Z,0
2016-03-12T04:40:06.752Z,0
2016-03-12T04:41:06.708Z,0
2016-03-12T04:42:06.632Z,0
2016-03-12T04:43:06.572Z,0
2016-03-12T04:44:06.497Z,0
2016-03-12T04:45:06.452Z,0
2016-03-12T04:46:06.393Z,0
2016-03-12T04:47:06.348Z,0
2016-03-12T04:48:06.305Z,0
2016-03-12T04:49:06.229Z,0
2016-03-12T04:50:06.044Z,0
2016-03-12T04:51:06.094Z,0
2016-03-12T04:52:05.925Z,0
2016-03-12T04:53:05.990Z,0
2016-03-12T04:54:05.929Z,0
2016-03-12T04:55:05.870Z,0
2016-03-12T04:56:05.842Z,0
2016-03-12T04:57:05.751Z,0
2016-03-12T04:58:05.676Z,0
2016-03-12T04:59:05.662Z,0
2016-03-12T05:00:05.571Z,0
2016-03-12T05:01:05.559Z,0
2016-03-12T05:02:05.467Z,0
2016-03-12T05:03:05.408Z,0
2016-03-12T05:04:05.348Z,0
2016-03-12T05:05:05.288Z,0
2016-03-12T05:06:05.259Z,0
2016-03-12T05:07:05.233Z,0
2016-03-12T05:08:05.126Z,0
2016-03-12T05:09:05.066Z,0
2016-03-12T05:10:04.990Z,0
2016-03-12T05:11:04.977Z,0
2016-03-12T05:12:04.886Z,0
2016-03-12T05:13:04.874Z,0
2016-03-12T05:14:04.782Z,0
2016-03-12T05:15:04.707Z,0
2016-03-12T05:16:04.678Z,0
2016-03-12T05:17:04.603Z,0
2016-03-12T05:18:04.381Z,0
2016-03-12T05:19:04.447Z,0
2016-03-12T05:20:04.390Z,0
2016-03-12T05:21:04.348Z,0
2016-03-12T05:22:04.259Z,0
2016-03-12T05:23:04.190Z,0
2016-03-12T05:24:04.142Z,0
2016-03-12T05:25:04.047Z,0
2016-03-12T05:26:03.997Z,0
2016-03-12T05:27:03.948Z,0
2016-03-12T05:28:03.886Z,0
2016-03-12T05:29:03.824Z,0
2016-03-12T05:30:03.762Z,0
2016-03-12T05:31:03.684Z,0
2016-03-12T05:32:03.623Z,0
2016-03-12T05:33:03.561Z,0
2016-03-12T05:34:03.517Z,0
2016-03-12T05:35:03.472Z,0
2016-03-12T05:36:03.379Z,0
2016-03-12T05:37:03.334Z,0
2016-03-12T05:38:03.275Z,0
2016-03-12T05:39:03.215Z,0
2016-03-12T05:40:03.155Z,0
2016-03-12T05:41:03.112Z,0
2016-03-12T05:42:03.036Z,0
2016-03-12T05:43:02.992Z,0
2016-03-12T05:44:02.947Z,0
2016-03-12T05:45:02.856Z,0
2016-03-12T05:46:02.859Z,4
2016-03-12T05:47:02.783Z,4
2016-03-12T05:48:02.691Z,4
2016-03-12T05:49:02.647Z,4
2016-03-12T05:50:02.603Z,0
2016-03-12T05:51:02.544Z,0
2016-03-12T05:52:02.468Z,0
2016-03-12T05:53:02.424Z,0
2016-03-12T05:54:02.364Z,0
2016-03-12T05:55:02.305Z,0
2016-03-12T05:56:02.244Z,4
2016-03-12T05:57:02.185Z,0
2016-03-12T05:58:01.985Z,0
2016-03-12T05:59:02.113Z,0
2016-03-12T06:00:02.021Z,4
2016-03-12T06:01:01.992Z,4
2016-03-12T06:02:01.933Z,0
2016-03-12T06:03:01.842Z,0
2016-03-12T06:04:01.798Z,4
2016-03-12T06:05:01.738Z,0
2016-03-12T06:06:01.554Z,0
2016-03-12T06:07:01.634Z,4
2016-03-12T06:08:01.590Z,4
2016-03-12T06:09:01.529Z,4
2016-03-12T06:10:01.454Z,4
2016-03-12T06:11:01.410Z,4
2016-03-12T06:12:01.350Z,4
2016-03-12T06:13:01.275Z,4
2016-03-12T06:14:01.246Z,4
2016-03-12T06:15:01.187Z,4
2016-03-12T06:16:01.142Z,4
2016-03-12T06:17:01.051Z,4
2016-03-12T06:18:00.992Z,4
2016-03-12T06:19:00.963Z,4
2016-03-12T06:20:00.888Z,0
2016-03-12T06:21:00.858Z,4
2016-03-12T06:22:00.799Z,4
2016-03-12T06:23:00.724Z,4
2016-03-12T06:24:00.680Z,4
2016-03-12T06:25:00.619Z,4
2016-03-12T06:26:00.544Z,4
2016-03-12T06:27:00.516Z,4
2016-03-12T06:28:00.441Z,4
2016-03-12T06:29:00.380Z,4
2016-03-12T06:30:00.352Z,4
2016-03-12T06:31:00.324Z,4
2016-03-12T06:32:00.216Z,4
2016-03-12T06:33:00.173Z,4
2016-03-12T06:34:00.112Z,4
2016-03-12T06:35:00.069Z,4
2016-03-12T06:35:59.977Z,8
2016-03-12T06:36:59.949Z,4
2016-03-12T06:37:59.857Z,4
2016-03-12T06:38:59.845Z,4
2016-03-12T06:39:59.738Z,4
2016-03-12T06:40:59.694Z,4
2016-03-12T06:41:59.650Z,4
2016-03-12T06:42:59.590Z,8
2016-03-12T06:43:59.546Z,8
2016-03-12T06:44:59.517Z,4
2016-03-12T06:45:59.411Z,8
2016-03-12T06:46:59.351Z,4
2016-03-12T06:47:59.307Z,8
2016-03-12T06:48:59.278Z,8
2016-03-12T06:49:59.264Z,8
2016-03-12T06:50:59.142Z,8
2016-03-12T06:51:59.099Z,4
2016-03-12T06:52:59.008Z,4
2016-03-12T06:53:58.963Z,8
2016-03-12T06:54:58.935Z,4
2016-03-12T06:55:58.844Z,8
2016-03-12T06:56:58.783Z,8
2016-03-12T06:57:58.771Z,8
2016-03-12T06:58:58.695Z,4
2016-03-12T06:59:58.636Z,4
2016-03-12T07:00:58.591Z,4
2016-03-12T07:01:58.485Z,8
2016-03-12T07:02:58.456Z,8
2016-03-12T07:03:58.427Z,8
2016-03-12T07:04:58.352Z,4
2016-03-12T07:05:58.292Z,8
2016-03-12T07:06:58.249Z,8
2016-03-12T07:07:58.173Z,8
2016-03-12T07:08:58.113Z,8
2016-03-12T07:09:58.068Z,8
2016-03-12T07:10:58.009Z,8
2016-03-12T07:11:57.793Z,8
2016-03-12T07:12:57.905Z,8
2016-03-12T07:13:57.829Z,8
2016-03-12T07:14:57.019Z,8
2016-03-12T07:15:57.742Z,8
2016-03-12T07:16:57.666Z,8
2016-03-12T07:17:57.590Z,8
2016-03-12T07:18:57.531Z,8
2016-03-12T07:19:57.503Z,12
2016-03-12T07:20:57.442Z,12
2016-03-12T07:21:57.366Z,12
2016-03-12T07:22:57.307Z,12
2016-03-12T07:23:57.263Z,8
2016-03-12T07:24:57.203Z,8
2016-03-12T07:25:57.143Z,8
2016-03-12T07:26:57.099Z,8
2016-03-12T07:27:57.039Z,8
2016-03-12T07:28:56.980Z,12
2016-03-12T07:29:56.888Z,12
2016-03-12T07:30:56.860Z,8
2016-03-12T07:31:56.800Z,8
2016-03-12T07:32:56.740Z,8
2016-03-12T07:33:56.540Z,12
2016-03-12T07:34:56.635Z,12
2016-03-12T07:35:56.561Z,12
2016-03-12T07:36:56.501Z,12
2016-03-12T07:37:56.551Z,12
2016-03-12T07:38:56.443Z,16
2016-03-12T07:39:56.353Z,12
2016-03-12T07:40:56.277Z,12
2016-03-12T07:41:56.233Z,16
2016-03-12T07:42:56.190Z,16
2016-03-12T07:43:56.145Z,12
2016-03-12T07:44:56.054Z,12
2016-03-12T07:45:55.978Z,12
2016-03-12T07:46:55.950Z,12
2016-03-12T07:47:55.859Z,16
2016-03-12T07:48:55.814Z,12
2016-03-12T07:49:55.770Z,16
2016-03-12T07:50:55.710Z,16
2016-03-12T07:51:55.650Z,12
2016-03-12T07:52:55.606Z,12
2016-03-12T07:53:55.530Z,16
2016-03-12T07:54:55.472Z,16
2016-03-12T07:55:55.271Z,16
2016-03-12T07:56:55.352Z,16
2016-03-12T07:57:55.307Z,16
2016-03-12T07:58:55.263Z,16
2016-03-12T07:59:55.188Z,16
2016-03-12T08:00:55.159Z,16
2016-03-12T08:01:55.099Z,20
2016-03-12T08:02:55.023Z,16
2016-03-12T08:03:54.964Z,16
2016-03-12T08:04:54.920Z,16
2016-03-12T08:05:54.876Z,20
2016-03-12T08:06:54.801Z,20
2016-03-12T08:07:54.757Z,20
2016-03-12T08:08:54.759Z,16
2016-03-12T08:09:54.684Z,20
2016-03-12T08:10:54.576Z,20
2016-03-12T08:11:54.517Z,20
2016-03-12T08:12:54.473Z,20
2016-03-12T08:13:54.413Z,20
2016-03-12T08:14:54.337Z,24
2016-03-12T08:15:54.278Z,24
2016-03-12T08:16:54.249Z,24
2016-03-12T08:17:54.173Z,24
2016-03-12T08:18:54.098Z,24
2016-03-12T08:19:54.039Z,24
2016-03-12T08:20:54.009Z,24
2016-03-12T08:21:53.934Z,24
2016-03-12T08:22:53.937Z,28
2016-03-12T08:23:53.846Z,24
2016-03-12T08:24:53.770Z,24
2016-03-12T08:25:53.711Z,28
2016-03-12T08:26:53.650Z,28
2016-03-12T08:27:53.638Z,24
2016-03-12T08:28:53.578Z,24
2016-03-12T08:29:53.471Z,24
2016-03-12T08:30:53.428Z,28
2016-03-12T08:31:53.368Z,32
2016-03-12T08:32:53.324Z,28
2016-03-12T08:33:53.263Z,28
2016-03-12T08:34:53.188Z,28
2016-03-12T08:35:53.144Z,28
2016-03-12T08:36:53.084Z,28
2016-03-12T08:37:53.071Z,28
2016-03-12T08:38:52.996Z,28
2016-03-12T08:39:52.905Z,24
2016-03-12T08:40:52.876Z,24
2016-03-12T08:41:52.785Z,28
2016-03-12T08:42:52.726Z,28
2016-03-12T08:43:52.681Z,28
2016-03-12T08:44:52.620Z,32
2016-03-12T08:45:52.561Z,32
2016-03-12T08:46:52.486Z,32
2016-03-12T08:47:52.442Z,28
2016-03-12T08:48:52.397Z,28
2016-03-12T08:49:52.337Z,24
2016-03-12T08:50:52.309Z,24
2016-03-12T08:51:52.234Z,20
2016-03-12T08:52:52.158Z,20
2016-03-12T08:53:52.114Z,24
2016-03-12T08:54:52.070Z,24
2016-03-12T08:55:52.010Z,24
2016-03-12T08:56:51.981Z,24
2016-03-12T08:57:51.890Z,24
2016-03-12T08:58:51.862Z,28
2016-03-12T08:59:51.786Z,24
2016-03-12T09:00:51.742Z,24
2016-03-12T09:01:51.651Z,24
2016-03-12T09:02:51.607Z,24
2016-03-12T09:03:51.563Z,24
2016-03-12T09:04:51.487Z,24
2016-03-12T09:05:51.444Z,24
2016-03-12T09:06:51.415Z,24
2016-03-12T09:07:51.324Z,20
2016-03-12T09:08:51.279Z,28
2016-03-12T09:09:51.204Z,24
2016-03-12T09:10:51.160Z,24
2016-03-12T09:11:51.115Z,24
2016-03-12T09:12:51.040Z,28
2016-03-12T09:13:50.995Z,28
2016-03-12T09:14:50.937Z,32
2016-03-12T09:15:50.861Z,36
2016-03-12T09:16:50.801Z,32
2016-03-12T09:17:50.757Z,36
2016-03-12T09:18:50.712Z,36
2016-03-12T09:19:50.497Z,40
2016-03-12T09:20:50.609Z,36
2016-03-12T09:21:50.534Z,36
2016-03-12T09:22:50.489Z,36
2016-03-12T09:23:50.258Z,32
2016-03-12T09:24:50.353Z,36
2016-03-12T09:25:50.309Z,36
2016-03-12T09:26:50.250Z,36
2016-03-12T09:27:50.189Z,36
2016-03-12T09:28:50.147Z,36
2016-03-12T09:29:50.102Z,32
2016-03-12T09:30:50.042Z,28
2016-03-12T09:31:49.982Z,28
2016-03-12T09:32:49.907Z,28
2016-03-12T09:33:49.972Z,28
2016-03-12T09:34:49.818Z,28
2016-03-12T09:35:49.742Z,24
2016-03-12T09:36:49.682Z,24
2016-03-12T09:37:49.623Z,28
2016-03-12T09:38:49.579Z,28
2016-03-12T09:39:49.503Z,28
2016-03-12T09:40:49.475Z,24
2016-03-12T09:41:49.446Z,24
2016-03-12T09:42:49.354Z,24
2016-03-12T09:43:49.123Z,24
2016-03-12T09:44:49.235Z,24
2016-03-12T09:45:49.020Z,24
2016-03-12T09:46:49.131Z,24
2016-03-12T09:47:48.915Z,20
2016-03-12T09:48:49.012Z,24
2016-03-12T09:49:48.968Z,24
2016-03-12T09:50:48.892Z,28
2016-03-12T09:51:48.848Z,28
2016-03-12T09:52:48.773Z,24
2016-03-12T09:53:48.713Z,24
2016-03-12T09:54:48.700Z,24
2016-03-12T09:55:48.625Z,24
2016-03-12T09:56:48.564Z,20
2016-03-12T09:57:48.505Z,24
2016-03-12T09:58:48.444Z,20
2016-03-12T09:59:48.229Z,20
2016-03-12T10:00:48.325Z,24
2016-03-12T10:01:48.141Z,28
2016-03-12T10:02:48.237Z,24
2016-03-12T10:03:48.177Z,24
2016-03-12T10:04:48.149Z,28
2016-03-12T10:05:48.057Z,28
2016-03-12T10:06:48.289Z,24
2016-03-12T10:07:47.917Z,24
2016-03-12T10:08:47.873Z,28
2016-03-12T10:09:47.812Z,28
2016-03-12T10:10:47.784Z,28
2016-03-12T10:11:47.693Z,28
2016-03-12T10:12:47.648Z,28
2016-03-12T10:13:47.620Z,24
2016-03-12T10:14:47.529Z,24
2016-03-12T10:15:47.501Z,24
2016-03-12T10:16:47.409Z,24
2016-03-12T10:17:47.365Z,24
2016-03-12T10:18:47.306Z,28
2016-03-12T10:19:47.261Z,24
2016-03-12T10:20:47.217Z,24
2016-03-12T10:21:47.126Z,24
2016-03-12T10:22:47.083Z,24
2016-03-12T10:23:47.022Z,24
2016-03-12T10:24:46.977Z,24
2016-03-12T10:25:46.949Z,24
2016-03-12T10:26:46.889Z,20
2016-03-12T10:27:46.799Z,24
2016-03-12T10:28:46.738Z,24
2016-03-12T10:29:46.742Z,24
2016-03-12T10:30:46.619Z,24
2016-03-12T10:31:46.590Z,28
2016-03-12T10:32:46.562Z,24
2016-03-12T10:33:46.471Z,24
2016-03-12T10:34:46.426Z,24
2016-03-12T10:35:46.351Z,24
2016-03-12T10:36:46.322Z,24
2016-03-12T10:37:46.226Z,24
2016-03-12T10:38:46.197Z,28
2016-03-12T10:39:46.153Z,24
2016-03-12T10:40:46.077Z,28
2016-03-12T10:41:46.018Z,24
2016-03-12T10:42:45.973Z,28
2016-03-12T10:43:45.742Z,28
2016-03-12T10:44:45.886Z,28
2016-03-12T10:45:45.810Z,28
2016-03-12T10:46:45.718Z,28
2016-03-12T10:47:45.691Z,28
2016-03-12T10:48:45.614Z,32
2016-03-12T10:49:45.586Z,32
2016-03-12T10:50:45.511Z,28
2016-03-12T10:51:45.451Z,32
2016-03-12T10:52:45.391Z,32
2016-03-12T10:53:45.362Z,36
2016-03-12T10:54:45.288Z,32
2016-03-12T10:55:45.258Z,32
2016-03-12T10:56:45.199Z,32
2016-03-12T10:57:45.138Z,32
2016-03-12T10:58:45.063Z,32
2016-03-12T10:59:45.019Z,32
2016-03-12T11:00:44.959Z,28
2016-03-12T11:01:44.899Z,28
2016-03-12T11:02:44.870Z,28
2016-03-12T11:03:44.780Z,28
2016-03-12T11:04:44.736Z,24
2016-03-12T11:05:44.692Z,28
2016-03-12T11:06:44.617Z,28
2016-03-12T11:07:44.540Z,32
2016-03-12T11:08:44.512Z,28
2016-03-12T11:09:44.452Z,28
2016-03-12T11:10:44.409Z,32
2016-03-12T11:11:44.333Z,32
2016-03-12T11:12:44.133Z,28
2016-03-12T11:13:44.213Z,32
2016-03-12T11:14:43.997Z,28
2016-03-12T11:15:44.125Z,28
2016-03-12T11:16:44.064Z,28
2016-03-12T11:17:44.022Z,28
2016-03-12T11:18:43.930Z,28
2016-03-12T11:19:43.729Z,28
2016-03-12T11:20:43.857Z,28
2016-03-12T11:21:43.866Z,24
2016-03-12T11:22:43.846Z,24
2016-03-12T11:23:43.504Z,24
2016-03-12T11:24:44.399Z,24
2016-03-12T11:25:43.608Z,24
2016-03-12T11:26:43.485Z,24
2016-03-12T11:27:43.441Z,24
2016-03-12T11:28:43.413Z,24
2016-03-12T11:29:43.369Z,20
2016-03-12T11:30:43.277Z,24
2016-03-12T11:31:43.217Z,24
2016-03-12T11:32:43.174Z,20
2016-03-12T11:33:43.129Z,20
2016-03-12T11:34:43.054Z,24
2016-03-12T11:35:42.994Z,20
2016-03-12T11:36:42.934Z,20
2016-03-12T11:37:42.890Z,20
2016-03-12T11:38:42.751Z,16
2016-03-12T11:39:42.787Z,16
2016-03-12T11:40:42.710Z,20
2016-03-12T11:41:42.682Z,20
2016-03-12T11:42:42.590Z,24
2016-03-12T11:43:42.562Z,20
2016-03-12T11:44:42.487Z,20
2016-03-12T11:45:42.427Z,20
2016-03-12T11:46:42.384Z,20
2016-03-12T11:47:42.308Z,20
2016-03-12T11:48:42.264Z,20
2016-03-12T11:49:42.234Z,20
2016-03-12T11:50:42.144Z,20
2016-03-12T11:51:42.100Z,24
2016-03-12T11:52:42.055Z,20
2016-03-12T11:53:41.980Z,20
2016-03-12T11:54:41.936Z,24
2016-03-12T11:55:41.875Z,20
2016-03-12T11:56:41.816Z,16
2016-03-12T11:57:41.772Z,20
2016-03-12T11:58:41.713Z,20
2016-03-12T11:59:41.652Z,20
2016-03-12T12:00:41.593Z,20
2016-03-12T12:01:41.517Z,20
2016-03-12T12:02:41.489Z,16
2016-03-12T12:03:41.413Z,16
2016-03-12T12:04:41.368Z,16
2016-03-12T12:05:41.309Z,20
2016-03-12T12:06:41.265Z,16
2016-03-12T12:07:41.220Z,20
2016-03-12T12:08:41.130Z,20
2016-03-12T12:09:41.085Z,24
2016-03-12T12:10:41.041Z,24
2016-03-12T12:11:40.965Z,24
2016-03-12T12:12:40.937Z,24
2016-03-12T12:13:40.878Z,28
2016-03-12T12:14:40.801Z,24
2016-03-12T12:15:40.758Z,28
2016-03-12T12:16:40.698Z,32
2016-03-12T12:17:40.653Z,28
2016-03-12T12:18:40.609Z,28
2016-03-12T12:19:40.519Z,28
2016-03-12T12:20:40.475Z,28
2016-03-12T12:21:40.446Z,24
2016-03-12T12:22:40.370Z,28
2016-03-12T12:23:40.889Z,28
2016-03-12T12:24:40.236Z,28
2016-03-12T12:25:40.206Z,24
2016-03-12T12:26:40.146Z,24
2016-03-12T12:27:40.072Z,28
2016-03-12T12:28:40.027Z,28
2016-03-12T12:29:39.967Z,28
2016-03-12T12:30:39.908Z,28
2016-03-12T12:31:39.863Z,28
2016-03-12T12:32:39.788Z,24
2016-03-12T12:33:39.743Z,24
2016-03-12T12:34:39.700Z,24
2016-03-12T12:35:39.624Z,28
2016-03-12T12:36:39.565Z,28
2016-03-12T12:37:39.535Z,28
2016-03-12T12:38:39.445Z,24
2016-03-12T12:39:39.384Z,24
2016-03-12T12:40:39.340Z,24
2016-03-12T12:41:39.296Z,24
2016-03-12T12:42:39.268Z,24
2016-03-12T12:43:39.192Z,24
2016-03-12T12:44:39.132Z,24
2016-03-12T12:45:39.073Z,24
2016-03-12T12:46:39.028Z,24
2016-03-12T12:47:38.219Z,24
2016-03-12T12:48:38.971Z,24
2016-03-12T12:49:38.850Z,24
2016-03-12T12:50:38.805Z,24
2016-03-12T12:51:38.745Z,24
2016-03-12T12:52:38.779Z,28
2016-03-12T12:53:38.625Z,24
2016-03-12T12:54:38.550Z,24
2016-03-12T12:55:38.506Z,20
2016-03-12T12:56:38.462Z,20
2016-03-12T12:57:38.386Z,24
2016-03-12T12:58:38.373Z,24
2016-03-12T12:59:38.282Z,20
2016-03-12T13:00:38.207Z,24
2016-03-12T13:01:38.194Z,20
2016-03-12T13:02:38.119Z,24
2016-03-12T13:03:38.059Z,20
2016-03-12T13:04:38.061Z,20
2016-03-12T13:05:37.970Z,20
2016-03-12T13:06:37.880Z,20
2016-03-12T13:07:37.835Z,16
2016-03-12T13:08:37.776Z,20
2016-03-12T13:09:37.746Z,20
2016-03-12T13:10:37.687Z,24
2016-03-12T13:11:37.596Z,20
2016-03-12T13:12:37.567Z,24
2016-03-12T13:13:37.508Z,20
2016-03-12T13:14:37.448Z,20
2016-03-12T13:15:37.404Z,24
2016-03-12T13:16:37.343Z,20
2016-03-12T13:17:37.284Z,24
2016-03-12T13:18:37.271Z,24
2016-03-12T13:19:37.180Z,24
2016-03-12T13:20:37.120Z,28
2016-03-12T13:21:37.061Z,24
2016-03-12T13:22:37.016Z,24
2016-03-12T13:23:36.956Z,20
2016-03-12T13:24:36.912Z,20
2016-03-12T13:25:36.836Z,20
2016-03-12T13:26:36.792Z,20
2016-03-12T13:27:36.732Z,20
2016-03-12T13:28:36.689Z,20
2016-03-12T13:29:36.613Z,20
2016-03-12T13:30:36.553Z,20
2016-03-12T13:31:36.509Z,16
2016-03-12T13:32:36.449Z,16
2016-03-12T13:33:36.421Z,16
2016-03-12T13:34:36.330Z,16
2016-03-12T13:35:36.286Z,12
2016-03-12T13:36:35.476Z,16
2016-03-12T13:37:35.431Z,16
2016-03-12T13:38:36.107Z,16
2016-03-12T13:39:36.062Z,16
2016-03-12T13:40:36.018Z,16
2016-03-12T13:41:35.942Z,16
2016-03-12T13:42:35.898Z,16
2016-03-12T13:43:35.823Z,20
2016-03-12T13:44:35.778Z,16
2016-03-12T13:45:35.735Z,16
2016-03-12T13:46:35.674Z,16
2016-03-12T13:47:35.599Z,16
2016-03-12T13:48:35.554Z,20
2016-03-12T13:49:35.495Z,20
2016-03-12T13:50:35.450Z,16
2016-03-12T13:51:35.391Z,12
2016-03-12T13:52:35.330Z,16
2016-03-12T13:53:35.272Z,12
2016-03-12T13:54:35.242Z,12
2016-03-12T13:55:35.167Z,12
2016-03-12T13:56:35.123Z,12
2016-03-12T13:57:35.078Z,16
2016-03-12T13:58:34.972Z,12
2016-03-12T13:59:34.943Z,12
2016-03-12T14:00:34.884Z,16
2016-03-12T14:01:34.824Z,16
2016-03-12T14:02:34.795Z,20
2016-03-12T14:03:34.735Z,16
2016-03-12T14:04:34.660Z,20
2016-03-12T14:05:34.585Z,20
2016-03-12T14:06:34.403Z,20
2016-03-12T14:07:34.501Z,20
2016-03-12T14:08:33.628Z,16
2016-03-12T14:09:34.382Z,16
2016-03-12T14:10:34.338Z,16
2016-03-12T14:11:34.262Z,12
2016-03-12T14:12:34.202Z,16
2016-03-12T14:13:34.159Z,12
2016-03-12T14:14:34.098Z,12
2016-03-12T14:15:34.039Z,16
2016-03-12T14:16:33.994Z,12
2016-03-12T14:17:33.919Z,12
2016-03-12T14:18:33.906Z,16
2016-03-12T14:19:33.799Z,12
2016-03-12T14:20:33.786Z,12
2016-03-12T14:21:33.695Z,16
2016-03-12T14:22:33.650Z,12
2016-03-12T14:23:33.600Z,16
2016-03-12T14:24:33.509Z,16
2016-03-12T14:25:33.419Z,16
2016-03-12T14:26:33.393Z,12
2016-03-12T14:27:33.318Z,12
2016-03-12T14:28:33.232Z,16
2016-03-12T14:29:33.167Z,16
2016-03-12T14:30:33.134Z,16